Armstrong Creek, Wisconsin
Current Conditions -  °F | °C
As of 8:54 PM on Tuesday 21 Oct 2014 (Local Time) from KIMT Reporting Station
Clear Clear  
Wind Chill: 31°   Ceiling: Unl
Heat Index: 36°   Visibility: 10mi
Dew Point: 28°   Wind: 6mph
Humidity: 73%   Direction: 90°E
Pressure: 30.28"   Gusts: NA
Location:  45.66°N, 88.45°W
Report Text: KIMT 220154Z AUTO 09005KT 10SM CLR 02/M02 A3028 RMK AO2 SLP267 T00221022
Loading
Personal Weather Stations






























Interactive Weather Map New forecast layout! Learn more

10-Day Weather Forecast

Advertisements
Track Severe Weather on mobile